createdAt,value
2022-10-17T00:00:52.636Z,6.95
2022-10-17T00:03:20.071Z,5.65
2022-10-17T00:05:49.223Z,6.35
2022-10-17T00:08:18.270Z,5.43
2022-10-17T00:10:45.714Z,5.25
2022-10-17T00:13:13.420Z,7.50
2022-10-17T00:15:44.809Z,6.70
2022-10-17T00:18:12.326Z,6.35
2022-10-17T00:20:39.636Z,6.57
2022-10-17T00:23:06.854Z,5.65
2022-10-17T00:25:34.143Z,5.75
2022-10-17T00:28:01.395Z,5.25
2022-10-17T00:30:28.632Z,6.70
2022-10-17T00:32:56.028Z,6.25
2022-10-17T00:35:23.290Z,4.68
2022-10-17T00:37:50.536Z,5.88
2022-10-17T00:40:17.904Z,4.68
2022-10-17T00:42:45.152Z,5.32
2022-10-17T00:45:14.754Z,5.93
2022-10-17T00:47:43.266Z,5.38
2022-10-17T00:50:12.181Z,4.97
2022-10-17T00:52:40.636Z,4.38
2022-10-17T00:55:30.745Z,4.60
2022-10-17T00:58:00.935Z,5.25
2022-10-17T01:00:28.205Z,4.75
2022-10-17T01:02:55.494Z,5.68
2022-10-17T01:05:23.078Z,5.93
2022-10-17T01:07:52.406Z,5.50
2022-10-17T01:10:20.706Z,5.32
2022-10-17T01:12:56.215Z,4.97
2022-10-17T01:15:41.497Z,4.78
2022-10-17T01:18:37.465Z,3.90
2022-10-17T01:21:26.306Z,5.72
2022-10-17T01:24:20.599Z,4.75
2022-10-17T01:27:18.604Z,5.25
2022-10-17T01:30:23.737Z,5.80
2022-10-17T01:33:13.485Z,4.95
2022-10-17T01:35:42.960Z,5.70
2022-10-17T01:39:08.584Z,4.65
2022-10-17T01:42:13.651Z,5.28
2022-10-17T01:44:55.606Z,7.18
2022-10-17T01:47:27.742Z,4.68
2022-10-17T01:49:59.918Z,4.40
2022-10-17T01:52:41.477Z,4.78
2022-10-17T01:55:21.140Z,4.65
2022-10-17T01:58:01.025Z,5.13
2022-10-17T02:00:30.072Z,4.45
2022-10-17T02:03:05.113Z,4.47
2022-10-17T02:05:39.144Z,4.40
2022-10-17T02:08:06.993Z,5.53
2022-10-17T02:10:37.009Z,4.40
2022-10-17T02:13:30.397Z,5.40
2022-10-17T02:16:24.304Z,5.78
2022-10-17T02:19:25.237Z,4.63
2022-10-17T02:22:05.717Z,5.97
2022-10-17T02:24:49.665Z,5.03
2022-10-17T02:27:35.422Z,5.95
2022-10-17T02:30:26.865Z,4.90
2022-10-17T02:33:01.490Z,5.25
2022-10-17T02:38:00.341Z,4.20
2022-10-17T02:40:30.308Z,5.50
2022-10-17T02:43:03.324Z,5.28
2022-10-17T02:45:35.956Z,5.00
2022-10-17T02:48:12.152Z,4.95
2022-10-17T02:51:08.961Z,4.50
2022-10-17T02:53:50.884Z,5.70
2022-10-17T02:56:21.250Z,4.38
2022-10-17T02:58:57.590Z,4.75
2022-10-17T03:01:25.628Z,4.75
2022-10-17T03:04:04.106Z,4.40
2022-10-17T03:06:31.366Z,4.75
2022-10-17T03:08:58.586Z,4.30
2022-10-17T03:11:25.810Z,4.78
2022-10-17T03:13:53.032Z,4.40
2022-10-17T03:16:20.308Z,4.22
2022-10-17T03:18:50.000Z,5.43
2022-10-17T03:21:17.743Z,4.00
2022-10-17T03:23:45.020Z,4.38
2022-10-17T03:26:12.254Z,4.10
2022-10-17T03:28:39.582Z,4.50
2022-10-17T03:31:13.032Z,4.25
2022-10-17T03:33:40.242Z,4.25
2022-10-17T03:36:13.302Z,4.40
2022-10-17T03:38:40.584Z,4.57
2022-10-17T03:41:08.396Z,4.18
2022-10-17T03:43:35.671Z,4.30
2022-10-17T03:46:03.340Z,4.78
2022-10-17T03:48:31.642Z,4.25
2022-10-17T03:51:04.365Z,4.97
2022-10-17T03:53:32.367Z,4.43
2022-10-17T03:56:13.919Z,3.95
2022-10-17T03:58:41.769Z,4.20
2022-10-17T04:01:11.293Z,4.43
2022-10-17T04:03:38.985Z,6.07
2022-10-17T04:06:07.009Z,5.40
2022-10-17T04:08:35.008Z,3.90
2022-10-17T04:11:04.785Z,3.38
2022-10-17T04:13:33.063Z,4.18
2022-10-17T04:16:02.969Z,4.80
2022-10-17T04:18:30.541Z,3.97
2022-10-17T04:20:57.817Z,5.28
2022-10-17T04:23:26.505Z,5.03
2022-10-17T04:26:00.447Z,3.83
2022-10-17T04:28:29.381Z,5.72
2022-10-17T04:30:58.201Z,4.93
2022-10-17T04:33:25.643Z,4.80
2022-10-17T04:36:04.437Z,5.53
2022-10-17T04:38:32.148Z,9.05
2022-10-17T04:41:03.721Z,5.10
2022-10-17T04:43:32.723Z,5.30
2022-10-17T04:46:01.373Z,5.25
2022-10-17T04:48:29.634Z,3.75
2022-10-17T04:50:59.262Z,5.82
2022-10-17T04:53:27.576Z,5.57
2022-10-17T04:55:54.844Z,5.60
2022-10-17T04:58:22.261Z,5.28
2022-10-17T05:00:49.755Z,4.60
2022-10-17T05:03:17.069Z,6.45
2022-10-17T05:05:44.278Z,4.82
2022-10-17T05:08:12.247Z,5.00
2022-10-17T05:10:42.464Z,3.97
2022-10-17T05:13:10.955Z,6.07
2022-10-17T05:15:39.013Z,4.32
2022-10-17T05:18:07.280Z,4.88
2022-10-17T05:20:34.751Z,4.85
2022-10-17T05:23:02.541Z,5.90
2022-10-17T05:25:29.754Z,4.13
2022-10-17T05:27:57.032Z,4.30
2022-10-17T05:30:24.236Z,4.32
2022-10-17T05:32:55.521Z,4.85
2022-10-17T05:35:23.174Z,5.28
2022-10-17T05:37:50.455Z,4.88
2022-10-17T05:40:17.967Z,5.25
2022-10-17T05:42:49.038Z,3.72
2022-10-17T05:45:16.879Z,4.38
2022-10-17T05:47:44.155Z,6.25
2022-10-17T05:50:11.721Z,4.70
2022-10-17T05:52:39.125Z,4.32
2022-10-17T05:55:07.439Z,5.05
2022-10-17T05:57:34.668Z,5.43
2022-10-17T06:00:02.204Z,3.90
2022-10-17T06:02:29.787Z,3.65
2022-10-17T06:04:57.245Z,3.22
2022-10-17T06:07:24.536Z,5.40
2022-10-17T06:09:51.784Z,4.60
2022-10-17T06:12:19.116Z,4.30
2022-10-17T06:14:46.345Z,4.45
2022-10-17T06:17:16.013Z,4.60
2022-10-17T06:19:44.835Z,3.83
2022-10-17T06:22:12.478Z,6.80
2022-10-17T06:24:39.726Z,3.67
2022-10-17T06:27:10.988Z,4.63
2022-10-17T06:29:39.311Z,3.50
2022-10-17T06:32:09.860Z,4.35
2022-10-17T06:34:39.959Z,4.13
2022-10-17T06:37:07.225Z,5.45
2022-10-17T06:39:35.906Z,4.82
2022-10-17T06:42:04.574Z,5.72
2022-10-17T06:44:32.014Z,4.32
2022-10-17T06:47:00.783Z,4.35
2022-10-17T06:49:28.379Z,4.00
2022-10-17T06:51:55.616Z,3.97
2022-10-17T06:54:22.836Z,4.95
2022-10-17T06:56:50.157Z,5.25
2022-10-17T06:59:17.433Z,4.57
2022-10-17T07:01:47.066Z,4.70
2022-10-17T07:04:14.703Z,6.68
2022-10-17T07:06:42.056Z,5.30
2022-10-17T07:09:09.775Z,4.90
2022-10-17T07:11:37.336Z,4.97
2022-10-17T07:14:04.754Z,5.22
2022-10-17T07:16:32.120Z,5.38
2022-10-17T07:18:59.337Z,5.55
2022-10-17T07:21:26.726Z,6.22
2022-10-17T07:23:54.005Z,6.47
2022-10-17T07:26:22.069Z,6.72
2022-10-17T07:28:53.560Z,6.60
2022-10-17T07:31:22.627Z,6.38
2022-10-17T07:33:50.770Z,7.18
2022-10-17T07:36:19.175Z,7.80
2022-10-17T07:38:46.599Z,8.18
2022-10-17T07:41:17.805Z,7.45
2022-10-17T07:43:48.125Z,7.53
2022-10-17T07:46:15.445Z,6.72
2022-10-17T07:48:42.845Z,8.48
2022-10-17T07:51:10.677Z,7.22
2022-10-17T07:53:39.173Z,8.75
2022-10-17T07:56:11.317Z,8.60
2022-10-17T07:58:39.571Z,8.60
2022-10-17T08:01:14.733Z,10.68
2022-10-17T08:03:44.524Z,7.78
2022-10-17T08:06:12.162Z,8.40
2022-10-17T08:08:39.563Z,10.98
2022-10-17T08:11:10.851Z,10.60
2022-10-17T08:13:38.811Z,9.93
2022-10-17T08:16:09.066Z,10.57
2022-10-17T08:18:38.901Z,11.15
2022-10-17T08:21:08.249Z,11.38
2022-10-17T08:23:36.397Z,10.85
2022-10-17T08:26:06.509Z,10.65
2022-10-17T08:28:36.592Z,11.23
2022-10-17T08:31:09.658Z,12.15
2022-10-17T08:33:36.995Z,11.88
2022-10-17T08:36:05.760Z,11.70
2022-10-17T08:38:35.552Z,13.63
2022-10-17T08:41:22.395Z,10.13
2022-10-17T08:44:08.378Z,12.13
2022-10-17T08:46:40.888Z,12.63
2022-10-17T08:49:19.369Z,11.70
2022-10-17T08:51:54.373Z,12.00
2022-10-17T08:54:32.645Z,11.88
2022-10-17T08:56:59.888Z,13.52
2022-10-17T08:59:31.416Z,10.82
2022-10-17T09:02:21.439Z,12.95
2022-10-17T09:04:57.400Z,12.75
2022-10-17T09:07:33.142Z,11.90
2022-10-17T09:10:24.696Z,13.40
2022-10-17T09:13:07.949Z,12.00
2022-10-17T09:15:53.129Z,13.60
2022-10-17T09:18:35.044Z,13.13
2022-10-17T09:21:24.997Z,14.43
2022-10-17T09:24:08.898Z,12.45
2022-10-17T09:26:39.299Z,13.77
2022-10-17T09:29:36.023Z,13.95
2022-10-17T09:32:26.072Z,15.57
2022-10-17T09:34:56.661Z,13.98
2022-10-17T09:37:30.965Z,13.70
2022-10-17T09:39:58.700Z,16.10
2022-10-17T09:42:28.458Z,13.77
2022-10-17T09:45:15.394Z,16.30
2022-10-17T09:48:13.375Z,14.48
2022-10-17T09:50:41.359Z,15.40
2022-10-17T09:53:26.777Z,15.82
2022-10-17T09:55:58.573Z,16.33
2022-10-17T09:58:42.331Z,18.05
2022-10-17T10:01:24.887Z,17.38
2022-10-17T10:04:11.443Z,15.52
2022-10-17T10:06:39.389Z,17.65
2022-10-17T10:09:18.667Z,15.85
2022-10-17T10:11:49.852Z,16.15
2022-10-17T10:14:37.513Z,17.23
2022-10-17T10:17:25.702Z,18.20
2022-10-17T10:19:54.053Z,17.23
2022-10-17T10:22:25.952Z,16.13
2022-10-17T10:25:14.935Z,16.25
2022-10-17T10:27:46.535Z,17.88
2022-10-17T10:30:27.929Z,16.90
2022-10-17T10:32:57.083Z,16.88
2022-10-17T10:35:42.361Z,17.23
2022-10-17T10:38:16.261Z,17.13
2022-10-17T10:41:07.686Z,15.25
2022-10-17T10:43:46.197Z,18.00
2022-10-17T10:46:23.820Z,16.30
2022-10-17T10:49:00.273Z,16.17
2022-10-17T10:51:47.428Z,14.82
2022-10-17T10:54:26.567Z,14.77
2022-10-17T10:56:58.168Z,15.88
2022-10-17T10:59:33.157Z,15.52
2022-10-17T11:02:03.096Z,16.63
2022-10-17T11:04:57.936Z,15.50
2022-10-17T11:07:52.408Z,14.75
2022-10-17T11:10:33.604Z,16.43
2022-10-17T11:13:08.582Z,14.77
2022-10-17T11:16:14.207Z,16.23
2022-10-17T11:21:32.683Z,16.38
2022-10-17T11:24:06.802Z,16.85
2022-10-17T11:26:45.376Z,19.20
2022-10-17T11:29:13.763Z,18.48
2022-10-17T11:31:50.428Z,19.70
2022-10-17T11:34:25.283Z,18.98
2022-10-17T11:37:09.852Z,19.67
2022-10-17T11:39:48.811Z,19.90
2022-10-17T11:42:28.029Z,20.90
2022-10-17T11:45:07.818Z,20.10
2022-10-17T11:47:56.073Z,17.80
2022-10-17T11:53:33.446Z,19.70
2022-10-17T11:56:01.968Z,19.08
2022-10-17T11:58:32.636Z,22.08
2022-10-17T12:01:08.514Z,20.73
2022-10-17T12:04:04.476Z,20.27
2022-10-17T12:07:09.261Z,17.77
2022-10-17T12:09:57.796Z,20.80
2022-10-17T12:12:32.212Z,17.77
2022-10-17T12:15:23.353Z,19.85
2022-10-17T12:18:04.251Z,20.67
2022-10-17T12:20:34.690Z,24.33
2022-10-17T12:23:04.663Z,20.30
2022-10-17T12:25:34.703Z,21.42
2022-10-17T12:28:13.228Z,20.67
2022-10-17T12:31:19.000Z,20.48
2022-10-17T12:34:03.976Z,21.95
2022-10-17T12:39:04.457Z,24.55
2022-10-17T12:41:40.815Z,24.58
2022-10-17T12:44:14.006Z,24.35
2022-10-17T12:47:05.725Z,24.33
2022-10-17T12:49:43.230Z,24.33
2022-10-17T12:52:32.317Z,24.80
2022-10-17T12:55:11.489Z,24.50
2022-10-17T12:57:51.663Z,24.38
2022-10-17T13:00:18.860Z,24.35
2022-10-17T13:02:46.657Z,22.60
2022-10-17T13:05:27.032Z,22.23
2022-10-17T13:07:55.493Z,22.02
2022-10-17T13:10:29.064Z,20.98
2022-10-17T13:13:07.078Z,18.90
2022-10-17T13:15:35.128Z,20.92
2022-10-17T13:18:02.678Z,24.98
2022-10-17T13:20:31.958Z,25.60
2022-10-17T13:22:59.812Z,22.55
2022-10-17T13:25:27.943Z,22.65
2022-10-17T13:28:07.013Z,20.42
2022-10-17T13:30:36.453Z,19.70
2022-10-17T13:33:16.456Z,19.58
2022-10-17T13:36:00.819Z,18.80
2022-10-17T13:38:32.594Z,17.95
2022-10-17T13:41:30.062Z,18.80
2022-10-17T13:43:49.517Z,18.38
2022-10-17T13:46:37.265Z,23.02
2022-10-17T13:49:25.866Z,18.40
2022-10-17T13:51:56.333Z,20.00
2022-10-17T13:54:41.845Z,18.90
2022-10-17T13:57:27.603Z,19.65
2022-10-17T14:00:18.125Z,19.05
2022-10-17T14:02:45.473Z,19.05
2022-10-17T14:05:18.168Z,17.85
2022-10-17T14:08:21.872Z,19.13
2022-10-17T14:10:48.585Z,20.23
2022-10-17T14:13:23.179Z,16.95
2022-10-17T14:18:35.679Z,17.80
2022-10-17T14:21:36.836Z,18.98
2022-10-17T14:24:11.675Z,18.90
2022-10-17T14:26:51.694Z,17.60
2022-10-17T14:29:52.732Z,17.08
2022-10-17T14:32:21.413Z,15.45
2022-10-17T14:35:00.715Z,18.27
2022-10-17T14:37:45.940Z,16.42
2022-10-17T14:40:19.932Z,15.77
2022-10-17T14:42:48.260Z,15.98
2022-10-17T14:45:26.083Z,16.67
2022-10-17T14:47:56.365Z,16.60
2022-10-17T14:50:28.411Z,15.27
2022-10-17T14:53:07.349Z,14.57
2022-10-17T14:55:37.238Z,16.05
2022-10-17T14:58:31.320Z,14.90
2022-10-17T15:01:00.452Z,13.85
2022-10-17T15:03:28.169Z,15.75
2022-10-17T15:05:56.152Z,13.98
2022-10-17T15:08:24.233Z,13.90
2022-10-17T15:10:51.944Z,15.50
2022-10-17T15:13:28.243Z,14.75
2022-10-17T15:15:56.795Z,13.75
2022-10-17T15:18:23.995Z,13.57
2022-10-17T15:20:59.519Z,14.70
2022-10-17T15:23:32.444Z,12.32
2022-10-17T15:25:59.963Z,12.30
2022-10-17T15:28:27.482Z,12.82
2022-10-17T15:30:54.777Z,13.25
2022-10-17T15:33:23.101Z,13.55
2022-10-17T15:35:51.635Z,12.95
2022-10-17T15:38:18.922Z,13.23
2022-10-17T15:40:50.740Z,12.55
2022-10-17T15:43:19.935Z,13.25
2022-10-17T15:45:47.732Z,12.05
2022-10-17T15:48:24.010Z,12.70
2022-10-17T15:50:51.259Z,11.90
2022-10-17T15:53:19.362Z,11.50
2022-10-17T15:55:50.031Z,12.98
2022-10-17T15:58:18.889Z,9.20
2022-10-17T16:00:46.804Z,10.27
2022-10-17T16:03:14.390Z,9.07
2022-10-17T16:05:41.656Z,7.32
2022-10-17T16:08:08.904Z,9.38
2022-10-17T16:10:40.447Z,8.73
2022-10-17T16:13:16.115Z,11.35
2022-10-17T16:15:43.403Z,12.77
2022-10-17T16:18:10.654Z,15.40
2022-10-17T16:20:39.027Z,14.75
2022-10-17T16:23:08.379Z,19.70
2022-10-17T16:25:35.883Z,19.80
2022-10-17T16:28:04.148Z,23.23
2022-10-17T16:30:32.495Z,21.50
2022-10-17T16:32:59.946Z,22.15
2022-10-17T16:35:33.295Z,23.20
2022-10-17T16:38:04.637Z,22.08
2022-10-17T16:40:31.901Z,24.08
2022-10-17T16:42:59.182Z,27.33
2022-10-17T16:45:26.435Z,25.08
2022-10-17T16:47:53.763Z,22.50
2022-10-17T16:50:21.121Z,24.60
2022-10-17T16:52:48.347Z,24.27
2022-10-17T16:55:18.764Z,24.23
2022-10-17T16:57:48.850Z,21.65
2022-10-17T17:00:17.356Z,25.25
2022-10-17T17:02:47.499Z,23.60
2022-10-17T17:05:15.299Z,23.30
2022-10-17T17:07:42.716Z,23.60
2022-10-17T17:10:10.197Z,22.17
2022-10-17T17:12:37.442Z,25.48
2022-10-17T17:15:05.395Z,23.10
2022-10-17T17:17:48.742Z,21.80
2022-10-17T17:22:44.837Z,21.48
2022-10-17T17:25:12.054Z,25.48
2022-10-17T17:27:39.284Z,23.83
2022-10-17T17:30:07.699Z,21.27
2022-10-17T17:32:34.964Z,23.10
2022-10-17T17:35:02.355Z,22.95
2022-10-17T17:37:29.891Z,20.80
2022-10-17T17:39:57.288Z,21.73
2022-10-17T17:42:24.585Z,25.52
2022-10-17T17:44:52.286Z,23.05
2022-10-17T17:47:19.714Z,19.63
2022-10-17T17:49:46.966Z,21.35
2022-10-17T17:52:14.208Z,19.48
2022-10-17T17:54:41.420Z,20.13
2022-10-17T17:57:08.668Z,19.75
2022-10-17T17:59:37.472Z,18.38
2022-10-17T18:02:06.433Z,21.48
2022-10-17T18:04:33.820Z,17.48
2022-10-17T18:07:01.049Z,18.73
2022-10-17T18:09:28.794Z,17.27
2022-10-17T18:11:56.022Z,17.45
2022-10-17T18:14:26.185Z,16.63
2022-10-17T18:16:53.794Z,18.25
2022-10-17T18:19:22.408Z,19.90
2022-10-17T18:21:49.717Z,16.17
2022-10-17T18:24:16.967Z,20.67
2022-10-17T18:26:44.231Z,19.88
2022-10-17T18:29:12.812Z,16.48
2022-10-17T18:31:40.059Z,21.55
2022-10-17T18:34:07.373Z,14.88
2022-10-17T18:36:37.136Z,15.25
2022-10-17T18:39:04.989Z,17.13
2022-10-17T18:41:33.645Z,18.30
2022-10-17T18:44:02.920Z,17.33
2022-10-17T18:46:36.010Z,16.73
2022-10-17T18:49:04.020Z,18.20
2022-10-17T18:51:31.373Z,17.55
2022-10-17T18:53:58.780Z,17.10
2022-10-17T18:56:26.905Z,14.35
2022-10-17T18:58:54.903Z,16.25
2022-10-17T19:01:25.078Z,14.95
2022-10-17T19:03:54.969Z,15.85
2022-10-17T19:06:27.524Z,16.23
2022-10-17T19:08:55.141Z,13.10
2022-10-17T19:11:25.487Z,14.90
2022-10-17T19:13:53.487Z,13.20
2022-10-17T19:16:33.588Z,12.85
2022-10-17T19:19:07.247Z,13.52
2022-10-17T19:21:35.189Z,12.27
2022-10-17T19:24:06.704Z,14.10
2022-10-17T19:26:35.493Z,13.30
2022-10-17T19:29:04.212Z,12.13
2022-10-17T19:31:33.674Z,12.43
2022-10-17T19:34:01.810Z,12.30
2022-10-17T19:36:33.578Z,12.25
2022-10-17T19:39:03.790Z,10.52
2022-10-17T19:41:31.789Z,15.48
2022-10-17T19:43:59.785Z,27.50
2022-10-17T19:46:29.112Z,25.15
2022-10-17T19:48:56.595Z,21.23
2022-10-17T19:51:24.921Z,22.27
2022-10-17T19:53:53.428Z,23.98
2022-10-17T19:56:22.936Z,21.48
2022-10-17T19:58:51.010Z,21.27
2022-10-17T20:01:29.851Z,16.88
2022-10-17T20:03:57.495Z,15.48
2022-10-17T20:06:25.608Z,17.08
2022-10-17T20:08:53.781Z,13.70
2022-10-17T20:11:23.757Z,14.73
2022-10-17T20:13:51.848Z,15.25
2022-10-17T20:16:25.362Z,14.30
2022-10-17T20:18:55.291Z,11.93
2022-10-17T20:21:27.168Z,12.25
2022-10-17T20:23:55.100Z,12.80
2022-10-17T20:26:33.545Z,12.50
2022-10-17T20:29:08.331Z,12.82
2022-10-17T20:31:35.656Z,12.48
2022-10-17T20:34:03.452Z,9.77
2022-10-17T20:36:30.746Z,9.88
2022-10-17T20:38:59.161Z,10.95
2022-10-17T20:41:27.180Z,7.95
2022-10-17T20:43:55.631Z,14.82
2022-10-17T20:46:36.239Z,9.35
2022-10-17T20:49:08.489Z,8.48
2022-10-17T20:51:36.393Z,11.18
2022-10-17T20:54:04.043Z,8.90
2022-10-17T20:56:33.010Z,7.60
2022-10-17T20:59:05.852Z,8.85
2022-10-17T21:01:34.933Z,8.45
2022-10-17T21:04:27.117Z,9.52
2022-10-17T21:06:52.043Z,7.78
2022-10-17T21:09:20.243Z,9.45
2022-10-17T21:11:48.356Z,8.43
2022-10-17T21:14:16.722Z,8.07
2022-10-17T21:16:44.199Z,6.45
2022-10-17T21:19:12.534Z,8.80
2022-10-17T21:21:42.166Z,9.77
2022-10-17T21:24:14.839Z,8.40
2022-10-17T21:26:43.380Z,9.27
2022-10-17T21:29:13.385Z,6.95
2022-10-17T21:31:43.619Z,8.18
2022-10-17T21:34:20.761Z,9.13
2022-10-17T21:36:49.078Z,6.25
2022-10-17T21:39:17.150Z,9.57
2022-10-17T21:41:45.439Z,8.00
2022-10-17T21:44:20.366Z,10.30
2022-10-17T21:46:48.579Z,5.72
2022-10-17T21:49:18.208Z,6.13
2022-10-17T21:51:47.478Z,6.20
2022-10-17T21:54:16.187Z,6.18
2022-10-17T21:56:43.563Z,7.22
2022-10-17T21:59:11.501Z,8.57
2022-10-17T22:01:41.119Z,5.57
2022-10-17T22:04:14.399Z,5.82
2022-10-17T22:06:43.059Z,6.72
2022-10-17T22:09:14.795Z,5.97
2022-10-17T22:11:44.167Z,5.88
2022-10-17T22:14:16.767Z,6.88
2022-10-17T22:16:47.528Z,5.93
2022-10-17T22:19:17.259Z,9.38
2022-10-17T22:21:44.471Z,6.05
2022-10-17T22:24:13.834Z,5.82
2022-10-17T22:26:42.417Z,5.05
2022-10-17T22:29:10.384Z,5.57
2022-10-17T22:31:38.375Z,6.68
2022-10-17T22:34:07.135Z,4.93
2022-10-17T22:36:35.413Z,5.47
2022-10-17T22:39:03.597Z,6.20
2022-10-17T22:41:31.053Z,7.13
2022-10-17T22:43:58.324Z,6.20
2022-10-17T22:46:26.015Z,7.75
2022-10-17T22:48:53.536Z,6.38
2022-10-17T22:51:20.874Z,5.38
2022-10-17T22:53:48.213Z,6.22
2022-10-17T22:56:18.333Z,5.63
2022-10-17T22:58:46.292Z,5.07
2022-10-17T23:01:21.639Z,5.00
2022-10-17T23:03:49.545Z,5.15
2022-10-17T23:06:16.842Z,5.82
2022-10-17T23:08:44.359Z,5.47
2022-10-17T23:11:12.356Z,6.88
2022-10-17T23:13:40.802Z,5.97
2022-10-17T23:16:08.906Z,5.57
2022-10-17T23:18:37.229Z,4.60
2022-10-17T23:21:04.879Z,5.43
2022-10-17T23:23:32.258Z,4.82
2022-10-17T23:26:08.438Z,4.95
2022-10-17T23:28:36.029Z,6.05
2022-10-17T23:31:11.757Z,5.97
2022-10-17T23:33:41.213Z,5.05
2022-10-17T23:36:10.523Z,5.40
2022-10-17T23:38:38.527Z,5.43
2022-10-17T23:41:06.052Z,5.28
2022-10-17T23:43:34.231Z,5.93
2022-10-17T23:46:02.669Z,5.13
2022-10-17T23:48:30.534Z,5.82
2022-10-17T23:50:58.097Z,4.30
2022-10-17T23:53:25.656Z,5.50
2022-10-17T23:55:53.320Z,4.20
2022-10-17T23:58:20.501Z,4.63
